Time;durP1;ratioP1;P1;durP2;ratioP2;P2;SDS_P1;SDS_P2;PMS_P1;PMS_P2;Temp;Humidity;BMP_temperature;BMP_pressure;BME280_temperature;BME280_humidity;BME280_pressure;Samples;Min_cycle;Max_cycle;Signal;HPM_P1;HPM_P2
2024/01/19 00:00:24;;;;;;;0.10;0.10;;;;;;;;;;5064337;28;20040;-82
2024/01/19 00:02:51;;;;;;;0.10;0.10;;;;;;;;;;5065197;28;20134;-81
2024/01/19 00:05:19;;;;;;;0.10;0.10;;;;;;;;;;5058713;28;20131;-79
2024/01/19 00:08:21;;;;;;;0.10;0.10;;;;;;;;;;5054917;28;20881;-81
2024/01/19 00:10:56;;;;;;;0.00;0.00;;;;;;;;;;5055161;28;20067;-80
2024/01/19 00:13:25;;;;;;;0.10;0.10;;;;;;;;;;5051401;28;20048;-80
2024/01/19 00:16:05;;;;;;;0.10;0.10;;;;;;;;;;5047448;28;20306;-80
2024/01/19 00:19:09;;;;;;;0.55;0.55;;;;;;;;;;5050328;28;20101;-80
2024/01/19 00:22:01;;;;;;;1.00;1.00;;;;;;;;;;5008381;28;20134;-82
2024/01/19 00:25:03;;;;;;;;;;;;;;;;;;;;;
2024/01/19 00:28:06;;;;;;;0.08;0.08;;;;;;;;;;4999952;28;20600;-79
2024/01/19 00:30:41;;;;;;;0.10;0.10;;;;;;;;;;4979246;28;20058;-79
2024/01/19 00:33:31;;;;;;;0.10;0.10;;;;;;;;;;4973024;28;20234;-79
2024/01/19 00:36:15;;;;;;;0.10;0.10;;;;;;;;;;4968401;28;20043;-80
2024/01/19 00:39:08;;;;;;;4.00;3.72;;;;;;;;;;4987817;28;20750;-81
2024/01/19 00:42:21;;;;;;;0.10;0.10;;;;;;;;;;5012400;28;20045;-80
2024/01/19 00:45:06;;;;;;;0.10;0.10;;;;;;;;;;5054721;28;20041;-80
2024/01/19 00:47:32;;;;;;;0.10;0.10;;;;;;;;;;5051143;28;20065;-82
2024/01/19 00:49:59;;;;;;;0.10;0.10;;;;;;;;;;5065403;28;20034;-80
2024/01/19 00:52:25;;;;;;;0.10;0.10;;;;;;;;;;5055601;28;20041;-81
2024/01/19 00:54:52;;;;;;;0.10;0.10;;;;;;;;;;5067879;28;20583;-80
2024/01/19 00:57:19;;;;;;;0.10;0.10;;;;;;;;;;5062745;28;20037;-82
2024/01/19 00:59:45;;;;;;;0.10;0.10;;;;;;;;;;5046678;28;20069;-80
2024/01/19 01:02:12;;;;;;;0.10;0.10;;;;;;;;;;5051511;28;20045;-79
2024/01/19 01:04:38;;;;;;;0.10;0.10;;;;;;;;;;5061402;28;20071;-79
2024/01/19 01:07:08;;;;;;;0.10;0.10;;;;;;;;;;5059321;28;20577;-79
2024/01/19 01:09:35;;;;;;;0.10;0.10;;;;;;;;;;5057543;28;20037;-80
2024/01/19 01:12:02;;;;;;;0.10;0.10;;;;;;;;;;5057324;28;20053;-79
2024/01/19 01:14:28;;;;;;;0.10;0.10;;;;;;;;;;5117241;22;20054;-77
2024/01/19 01:16:54;;;;;;;0.00;0.00;;;;;;;;;;5056389;28;20057;-77
2024/01/19 01:19:21;;;;;;;0.10;0.10;;;;;;;;;;5059102;28;20158;-77
2024/01/19 01:21:47;;;;;;;0.10;0.10;;;;;;;;;;5050575;28;20070;-77
2024/01/19 01:24:13;;;;;;;0.00;0.00;;;;;;;;;;5044329;28;20057;-77
2024/01/19 01:26:40;;;;;;;0.10;0.10;;;;;;;;;;5043865;28;20060;-77
2024/01/19 01:29:06;;;;;;;0.10;0.10;;;;;;;;;;5026977;28;20050;-75
2024/01/19 01:31:33;;;;;;;0.03;0.03;;;;;;;;;;5047254;28;20053;-75
2024/01/19 01:33:59;;;;;;;0.10;0.10;;;;;;;;;;5031829;28;20060;-75
2024/01/19 01:36:26;;;;;;;0.10;0.10;;;;;;;;;;5049404;28;20085;-75
2024/01/19 01:38:52;;;;;;;0.10;0.10;;;;;;;;;;5030676;28;20057;-75
2024/01/19 01:41:18;;;;;;;0.10;0.10;;;;;;;;;;5048778;28;20104;-75
2024/01/19 01:43:45;;;;;;;0.10;0.10;;;;;;;;;;5051082;28;20050;-75
2024/01/19 01:46:12;;;;;;;0.10;0.10;;;;;;;;;;5049246;28;20069;-75
2024/01/19 01:48:38;;;;;;;0.10;0.10;;;;;;;;;;5048575;28;20081;-75
2024/01/19 01:51:05;;;;;;;0.10;0.10;;;;;;;;;;5031200;28;20057;-75
2024/01/19 01:53:32;;;;;;;0.10;0.10;;;;;;;;;;5049553;28;20085;-75
2024/01/19 01:55:59;;;;;;;0.10;0.10;;;;;;;;;;5048822;28;21629;-75
2024/01/19 01:58:25;;;;;;;0.10;0.10;;;;;;;;;;5047597;28;20053;-75
2024/01/19 02:00:52;;;;;;;0.10;0.10;;;;;;;;;;5046700;28;20499;-75
2024/01/19 02:03:19;;;;;;;0.10;0.10;;;;;;;;;;5048790;28;20049;-75
2024/01/19 02:05:45;;;;;;;0.10;0.10;;;;;;;;;;5049185;28;20055;-75
2024/01/19 02:08:12;;;;;;;0.00;0.00;;;;;;;;;;5047902;28;20060;-75
2024/01/19 02:10:39;;;;;;;0.10;0.10;;;;;;;;;;5031106;28;20057;-75
2024/01/19 02:13:05;;;;;;;0.10;0.10;;;;;;;;;;5048634;28;20458;-75
2024/01/19 02:15:34;;;;;;;0.10;0.10;;;;;;;;;;5047000;28;20084;-76
2024/01/19 02:18:01;;;;;;;0.00;0.00;;;;;;;;;;5046850;28;20638;-75
2024/01/19 02:20:27;;;;;;;0.10;0.10;;;;;;;;;;5048665;28;20057;-76
2024/01/19 02:22:54;;;;;;;0.10;0.10;;;;;;;;;;5045822;28;20306;-75
2024/01/19 02:25:21;;;;;;;0.00;0.00;;;;;;;;;;5041466;28;23336;-75
2024/01/19 02:27:47;;;;;;;0.10;0.10;;;;;;;;;;5040631;28;20058;-75
2024/01/19 02:30:14;;;;;;;0.10;0.10;;;;;;;;;;5043034;28;20064;-75
2024/01/19 02:32:40;;;;;;;0.10;0.10;;;;;;;;;;5028749;28;20082;-75
2024/01/19 02:35:07;;;;;;;0.10;0.10;;;;;;;;;;5047403;28;20144;-75
2024/01/19 02:37:34;;;;;;;0.10;0.10;;;;;;;;;;5047267;28;20058;-75
2024/01/19 02:40:00;;;;;;;0.10;0.10;;;;;;;;;;5048195;28;20084;-75
2024/01/19 02:42:29;;;;;;;0.10;0.10;;;;;;;;;;5047966;28;20089;-76
2024/01/19 02:44:56;;;;;;;0.10;0.10;;;;;;;;;;5048453;28;20049;-77
2024/01/19 02:47:22;;;;;;;0.10;0.10;;;;;;;;;;5047815;28;20053;-75
2024/01/19 02:49:49;;;;;;;0.10;0.10;;;;;;;;;;5045266;28;20137;-75
2024/01/19 02:52:15;;;;;;;0.10;0.10;;;;;;;;;;5030227;28;20061;-75
2024/01/19 02:54:41;;;;;;;0.10;0.10;;;;;;;;;;5047430;28;20826;-75
2024/01/19 02:57:08;;;;;;;0.10;0.10;;;;;;;;;;5047987;28;20127;-75
2024/01/19 02:59:34;;;;;;;0.10;0.10;;;;;;;;;;5047775;28;20152;-75
2024/01/19 03:02:00;;;;;;;0.10;0.10;;;;;;;;;;5047114;28;20061;-75
2024/01/19 03:04:27;;;;;;;0.10;0.10;;;;;;;;;;5047838;28;20060;-75
2024/01/19 03:06:55;;;;;;;0.10;0.10;;;;;;;;;;5042716;28;20060;-75
2024/01/19 03:09:21;;;;;;;0.10;0.10;;;;;;;;;;5047749;28;20045;-75
2024/01/19 03:11:47;;;;;;;0.10;0.10;;;;;;;;;;5047321;28;20482;-75
2024/01/19 03:14:14;;;;;;;0.20;0.20;;;;;;;;;;5047851;28;20056;-75
2024/01/19 03:16:43;;;;;;;0.10;0.10;;;;;;;;;;5047582;28;20057;-75
2024/01/19 03:19:10;;;;;;;0.10;0.10;;;;;;;;;;5046437;28;20076;-75
2024/01/19 03:21:36;;;;;;;0.10;0.10;;;;;;;;;;5046042;28;20609;-75
2024/01/19 03:24:03;;;;;;;0.10;0.10;;;;;;;;;;5043779;28;20496;-75
2024/01/19 03:26:29;;;;;;;0.10;0.10;;;;;;;;;;5046940;28;20089;-75
2024/01/19 03:28:56;;;;;;;0.00;0.00;;;;;;;;;;5047510;28;20049;-75
2024/01/19 03:31:22;;;;;;;0.10;0.10;;;;;;;;;;5047517;28;20148;-75
2024/01/19 03:33:49;;;;;;;0.10;0.10;;;;;;;;;;5046940;28;20103;-75
2024/01/19 03:36:15;;;;;;;0.10;0.10;;;;;;;;;;5046903;28;20578;-75
2024/01/19 03:38:43;;;;;;;0.10;0.10;;;;;;;;;;5040592;28;20148;-75
2024/01/19 03:41:09;;;;;;;0.10;0.10;;;;;;;;;;5040018;28;20053;-75
2024/01/19 03:43:36;;;;;;;0.10;0.10;;;;;;;;;;5047578;28;20057;-75
2024/01/19 03:46:02;;;;;;;0.10;0.10;;;;;;;;;;5047280;28;20107;-74
2024/01/19 03:48:28;;;;;;;0.10;0.10;;;;;;;;;;5045996;28;20049;-75
2024/01/19 03:50:55;;;;;;;0.10;0.10;;;;;;;;;;5042975;28;20061;-75
2024/01/19 03:53:21;;;;;;;0.10;0.10;;;;;;;;;;5047432;28;20107;-75
2024/01/19 03:55:48;;;;;;;0.10;0.10;;;;;;;;;;5046825;28;20053;-75
2024/01/19 03:58:14;;;;;;;0.10;0.10;;;;;;;;;;5039554;28;20061;-75
2024/01/19 04:00:41;;;;;;;0.00;0.00;;;;;;;;;;5042617;28;20055;-75
2024/01/19 04:03:07;;;;;;;0.10;0.10;;;;;;;;;;5047099;28;20069;-75
2024/01/19 04:05:34;;;;;;;0.00;0.00;;;;;;;;;;5046885;28;20053;-75
2024/01/19 04:08:01;;;;;;;0.08;0.08;;;;;;;;;;5029411;28;20049;-75
2024/01/19 04:10:28;;;;;;;0.10;0.10;;;;;;;;;;5046844;28;20061;-75
2024/01/19 04:12:54;;;;;;;0.10;0.10;;;;;;;;;;5029210;28;20694;-75
2024/01/19 04:15:21;;;;;;;0.10;0.10;;;;;;;;;;5042390;28;20045;-75
2024/01/19 04:17:47;;;;;;;0.00;0.00;;;;;;;;;;5046341;28;20508;-75
2024/01/19 04:20:13;;;;;;;0.10;0.10;;;;;;;;;;5046486;28;20046;-74
2024/01/19 04:22:40;;;;;;;0.10;0.10;;;;;;;;;;5046803;28;20601;-75
2024/01/19 04:25:07;;;;;;;0.10;0.10;;;;;;;;;;5029230;28;20057;-75
2024/01/19 04:27:33;;;;;;;0.10;0.10;;;;;;;;;;5047800;28;20479;-74
2024/01/19 04:30:00;;;;;;;0.03;0.03;;;;;;;;;;5046360;28;20145;-75
2024/01/19 04:32:26;;;;;;;0.10;0.10;;;;;;;;;;5046031;28;20526;-75
2024/01/19 04:34:53;;;;;;;0.10;0.10;;;;;;;;;;5049454;28;20045;-76
2024/01/19 04:37:20;;;;;;;0.10;0.10;;;;;;;;;;5039520;28;20057;-77
2024/01/19 04:39:47;;;;;;;0.10;0.10;;;;;;;;;;5046952;28;20049;-77
2024/01/19 04:42:13;;;;;;;0.10;0.10;;;;;;;;;;5041700;28;20504;-77
2024/01/19 04:44:39;;;;;;;0.00;0.00;;;;;;;;;;5040187;28;20061;-77
2024/01/19 04:47:06;;;;;;;0.10;0.10;;;;;;;;;;5045027;28;20062;-77
2024/01/19 04:49:33;;;;;;;0.10;0.10;;;;;;;;;;5043560;28;20054;-77
2024/01/19 04:51:59;;;;;;;0.10;0.10;;;;;;;;;;5045239;28;20096;-76
2024/01/19 04:54:25;;;;;;;0.10;0.10;;;;;;;;;;5041005;28;20045;-76
2024/01/19 04:56:52;;;;;;;0.10;0.10;;;;;;;;;;5029631;28;20080;-77
2024/01/19 04:59:18;;;;;;;0.10;0.10;;;;;;;;;;5030218;28;20054;-77
2024/01/19 05:01:45;;;;;;;0.10;0.10;;;;;;;;;;5046695;28;20521;-76
2024/01/19 05:04:11;;;;;;;0.10;0.10;;;;;;;;;;5044550;28;20139;-76
2024/01/19 05:06:38;;;;;;;0.10;0.10;;;;;;;;;;5043410;28;20049;-77
2024/01/19 05:09:05;;;;;;;0.10;0.10;;;;;;;;;;5049791;28;20522;-77
2024/01/19 05:11:31;;;;;;;0.10;0.10;;;;;;;;;;5034426;28;20092;-77
2024/01/19 05:13:58;;;;;;;0.10;0.10;;;;;;;;;;5049015;28;20518;-77
2024/01/19 05:16:24;;;;;;;0.10;0.10;;;;;;;;;;5043408;28;20526;-76
2024/01/19 05:18:51;;;;;;;0.10;0.10;;;;;;;;;;5050192;28;20057;-77
2024/01/19 05:21:17;;;;;;;0.10;0.10;;;;;;;;;;5048980;28;20057;-77
2024/01/19 05:23:43;;;;;;;0.10;0.10;;;;;;;;;;5043910;28;20470;-77
2024/01/19 05:26:10;;;;;;;0.10;0.10;;;;;;;;;;5050381;28;20570;-77
2024/01/19 05:28:36;;;;;;;0.10;0.10;;;;;;;;;;5051626;28;20073;-77
2024/01/19 05:31:03;;;;;;;0.10;0.10;;;;;;;;;;5050133;28;20527;-77
2024/01/19 05:33:31;;;;;;;0.00;0.00;;;;;;;;;;5049294;28;20056;-77
2024/01/19 05:36:01;;;;;;;0.10;0.10;;;;;;;;;;5047129;28;20132;-77
2024/01/19 05:38:28;;;;;;;0.10;0.10;;;;;;;;;;5049180;28;20111;-76
2024/01/19 05:40:56;;;;;;;0.10;0.10;;;;;;;;;;5047077;28;20100;-77
2024/01/19 05:43:22;;;;;;;0.10;0.10;;;;;;;;;;5048384;28;20877;-77
2024/01/19 05:45:48;;;;;;;0.10;0.10;;;;;;;;;;5049485;28;20171;-77
2024/01/19 05:48:15;;;;;;;0.00;0.00;;;;;;;;;;5049345;28;20065;-77
2024/01/19 05:50:41;;;;;;;0.10;0.10;;;;;;;;;;5051424;28;20064;-77
2024/01/19 05:53:07;;;;;;;0.00;0.00;;;;;;;;;;5049766;28;20061;-77
2024/01/19 05:55:34;;;;;;;0.10;0.10;;;;;;;;;;5048666;28;20143;-76
2024/01/19 05:58:03;;;;;;;0.10;0.10;;;;;;;;;;5043873;28;20671;-77
2024/01/19 06:00:29;;;;;;;0.10;0.10;;;;;;;;;;5048909;28;20054;-77
2024/01/19 06:02:56;;;;;;;0.03;0.03;;;;;;;;;;5049538;28;20064;-77
2024/01/19 06:05:22;;;;;;;0.10;0.10;;;;;;;;;;5048732;28;20054;-77
2024/01/19 06:07:49;;;;;;;0.10;0.10;;;;;;;;;;5043033;28;20104;-77
2024/01/19 06:10:15;;;;;;;0.10;0.10;;;;;;;;;;5046944;28;20942;-77
2024/01/19 06:12:42;;;;;;;0.00;0.00;;;;;;;;;;5048686;28;20053;-77
2024/01/19 06:15:08;;;;;;;0.10;0.10;;;;;;;;;;5047588;28;20099;-77
2024/01/19 06:17:35;;;;;;;0.05;0.05;;;;;;;;;;5030263;28;20084;-77
2024/01/19 06:20:02;;;;;;;0.10;0.10;;;;;;;;;;5050552;28;20089;-77
2024/01/19 06:22:28;;;;;;;0.10;0.10;;;;;;;;;;5047762;28;20149;-77
2024/01/19 06:24:54;;;;;;;0.10;0.10;;;;;;;;;;5048684;28;20144;-77
2024/01/19 06:27:21;;;;;;;0.10;0.10;;;;;;;;;;5030119;28;20597;-77
2024/01/19 06:29:48;;;;;;;0.08;0.08;;;;;;;;;;5042349;28;20463;-77
2024/01/19 06:32:14;;;;;;;0.10;0.10;;;;;;;;;;5046133;28;20057;-77
2024/01/19 06:34:41;;;;;;;0.00;0.00;;;;;;;;;;5048435;28;20053;-77
2024/01/19 06:37:08;;;;;;;0.10;0.10;;;;;;;;;;5047147;28;20156;-77
2024/01/19 06:39:35;;;;;;;0.00;0.00;;;;;;;;;;5030213;28;20514;-77
2024/01/19 06:42:01;;;;;;;0.10;0.10;;;;;;;;;;5046649;28;20053;-77
2024/01/19 06:44:28;;;;;;;0.10;0.10;;;;;;;;;;5045654;28;20064;-77
2024/01/19 06:46:54;;;;;;;0.10;0.10;;;;;;;;;;5047648;28;20045;-77
2024/01/19 06:49:20;;;;;;;0.10;0.10;;;;;;;;;;5043861;28;20466;-77
2024/01/19 06:51:47;;;;;;;0.10;0.10;;;;;;;;;;5047249;28;20045;-77
2024/01/19 06:54:13;;;;;;;0.10;0.10;;;;;;;;;;5030280;28;20057;-77
2024/01/19 06:56:40;;;;;;;0.10;0.10;;;;;;;;;;5047602;28;20107;-77
2024/01/19 06:59:06;;;;;;;0.10;0.10;;;;;;;;;;5047131;28;20080;-77
2024/01/19 07:01:34;;;;;;;0.10;0.10;;;;;;;;;;5043087;28;20538;-77
2024/01/19 07:04:02;;;;;;;0.00;0.00;;;;;;;;;;5031188;28;20085;-77
2024/01/19 07:06:28;;;;;;;0.10;0.10;;;;;;;;;;5023284;28;20865;-77
2024/01/19 07:08:55;;;;;;;0.10;0.10;;;;;;;;;;5044122;28;20081;-77
2024/01/19 07:11:21;;;;;;;0.00;0.00;;;;;;;;;;5044963;28;20054;-77
2024/01/19 07:13:47;;;;;;;0.10;0.10;;;;;;;;;;5044721;28;20049;-77
2024/01/19 07:16:14;;;;;;;0.10;0.10;;;;;;;;;;5040546;28;20057;-76
2024/01/19 07:18:40;;;;;;;0.10;0.10;;;;;;;;;;5036175;28;20050;-77
2024/01/19 07:21:07;;;;;;;0.10;0.10;;;;;;;;;;5047225;28;20068;-77
2024/01/19 07:23:34;;;;;;;0.10;0.10;;;;;;;;;;5046376;28;20104;-77
2024/01/19 07:26:01;;;;;;;0.00;0.00;;;;;;;;;;5042286;28;20530;-77
2024/01/19 07:28:27;;;;;;;0.10;0.10;;;;;;;;;;5038537;28;20066;-77
2024/01/19 07:30:54;;;;;;;0.10;0.10;;;;;;;;;;5121279;22;20092;-81
2024/01/19 07:33:20;;;;;;;0.00;0.00;;;;;;;;;;5074774;28;20053;-80
2024/01/19 07:35:58;;;;;;;0.40;0.40;;;;;;;;;;5072556;28;20041;-80
2024/01/19 07:38:26;;;;;;;0.10;0.10;;;;;;;;;;5070914;28;20099;-82
2024/01/19 07:40:55;;;;;;;0.10;0.10;;;;;;;;;;5065091;28;20054;-79
2024/01/19 07:43:21;;;;;;;0.10;0.10;;;;;;;;;;5069285;28;20808;-80
2024/01/19 07:45:48;;;;;;;0.00;0.00;;;;;;;;;;5072141;28;20148;-80
2024/01/19 07:48:14;;;;;;;0.10;0.10;;;;;;;;;;5072558;28;20067;-79
2024/01/19 07:50:41;;;;;;;0.10;0.10;;;;;;;;;;5073387;28;20111;-80
2024/01/19 07:53:08;;;;;;;0.10;0.10;;;;;;;;;;5067876;28;20056;-81
2024/01/19 07:55:34;;;;;;;0.38;0.38;;;;;;;;;;5061719;28;20056;-80
2024/01/19 07:58:02;;;;;;;0.10;0.10;;;;;;;;;;5070899;28;20104;-80
2024/01/19 08:00:29;;;;;;;0.10;0.10;;;;;;;;;;5061883;28;20057;-81
2024/01/19 08:02:55;;;;;;;0.20;0.20;;;;;;;;;;5071105;28;20104;-81
2024/01/19 08:05:22;;;;;;;0.10;0.10;;;;;;;;;;5071339;28;20034;-80
2024/01/19 08:07:48;;;;;;;0.10;0.10;;;;;;;;;;5067684;28;20215;-80
2024/01/19 08:10:15;;;;;;;0.10;0.10;;;;;;;;;;5069231;28;20059;-79
2024/01/19 08:12:41;;;;;;;0.10;0.10;;;;;;;;;;5062990;28;20131;-80
2024/01/19 08:15:08;;;;;;;0.10;0.10;;;;;;;;;;5063972;28;20053;-80
2024/01/19 08:17:35;;;;;;;0.10;0.10;;;;;;;;;;5068775;28;20925;-80
2024/01/19 08:20:02;;;;;;;0.10;0.10;;;;;;;;;;5063082;28;20144;-79
2024/01/19 08:22:28;;;;;;;0.10;0.10;;;;;;;;;;5067239;28;20100;-79
2024/01/19 08:24:55;;;;;;;0.10;0.10;;;;;;;;;;5069996;28;20165;-81
2024/01/19 08:27:22;;;;;;;0.10;0.10;;;;;;;;;;5068226;28;20060;-79
2024/01/19 08:29:48;;;;;;;0.10;0.10;;;;;;;;;;5069010;28;20057;-78
2024/01/19 08:32:14;;;;;;;0.10;0.10;;;;;;;;;;5069384;28;20107;-81
2024/01/19 08:34:44;;;;;;;0.10;0.10;;;;;;;;;;5067431;28;20053;-80
2024/01/19 08:37:11;;;;;;;0.10;0.10;;;;;;;;;;5060635;28;20058;-80
2024/01/19 08:39:38;;;;;;;0.08;0.08;;;;;;;;;;5067855;28;20045;-79
2024/01/19 08:42:07;;;;;;;0.10;0.10;;;;;;;;;;5071151;28;20053;-81
2024/01/19 08:44:33;;;;;;;0.10;0.10;;;;;;;;;;5069221;28;20080;-80
2024/01/19 08:47:00;;;;;;;0.05;0.05;;;;;;;;;;5069085;28;20041;-81
2024/01/19 08:49:26;;;;;;;0.10;0.10;;;;;;;;;;5066327;28;20064;-80
2024/01/19 08:51:53;;;;;;;0.03;0.03;;;;;;;;;;5056876;28;20445;-78
2024/01/19 08:54:20;;;;;;;0.10;0.10;;;;;;;;;;5067535;28;20114;-79
2024/01/19 08:56:46;;;;;;;0.00;0.00;;;;;;;;;;5065279;28;20620;-81
2024/01/19 08:59:23;;;;;;;0.10;0.10;;;;;;;;;;5064629;28;20146;-80
2024/01/19 09:01:53;;;;;;;0.10;0.10;;;;;;;;;;5059622;28;20068;-81
2024/01/19 09:04:19;;;;;;;0.10;0.10;;;;;;;;;;5059863;28;20045;-80
2024/01/19 09:06:46;;;;;;;0.10;0.10;;;;;;;;;;5064437;28;20053;-80
2024/01/19 09:09:12;;;;;;;0.10;0.10;;;;;;;;;;5067529;28;20053;-80
2024/01/19 09:11:39;;;;;;;0.10;0.10;;;;;;;;;;5065825;28;20057;-80
2024/01/19 09:14:09;;;;;;;0.10;0.10;;;;;;;;;;5062908;28;20080;-80
2024/01/19 09:16:40;;;;;;;0.10;0.10;;;;;;;;;;5063279;28;20057;-81
2024/01/19 09:19:07;;;;;;;0.10;0.10;;;;;;;;;;5066077;28;20060;-79
2024/01/19 09:21:33;;;;;;;0.10;0.10;;;;;;;;;;5068574;28;20111;-80
2024/01/19 09:24:00;;;;;;;0.10;0.10;;;;;;;;;;5069629;28;20053;-80
2024/01/19 09:26:26;;;;;;;0.10;0.10;;;;;;;;;;5059068;28;20064;-80
2024/01/19 09:28:53;;;;;;;0.10;0.10;;;;;;;;;;5068657;28;20968;-80
2024/01/19 09:31:20;;;;;;;0.10;0.10;;;;;;;;;;5066770;28;20123;-80
2024/01/19 09:33:47;;;;;;;70.43;7.22;;;;;;;;;;5055292;28;20052;-81
2024/01/19 09:36:14;;;;;;;0.10;0.10;;;;;;;;;;5058368;28;20141;-81
2024/01/19 09:38:40;;;;;;;0.10;0.10;;;;;;;;;;5057132;28;20041;-80
2024/01/19 09:41:25;;;;;;;0.10;0.10;;;;;;;;;;5061080;28;20084;-81
2024/01/19 09:43:53;;;;;;;0.10;0.10;;;;;;;;;;5062583;28;20555;-79
2024/01/19 09:46:24;;;;;;;0.82;0.82;;;;;;;;;;5067677;28;20519;-80
2024/01/19 09:48:54;;;;;;;0.10;0.10;;;;;;;;;;5067504;28;20487;-79
2024/01/19 09:51:21;;;;;;;0.10;0.10;;;;;;;;;;5064037;28;20084;-80
2024/01/19 09:53:48;;;;;;;0.10;0.10;;;;;;;;;;5067135;28;20068;-81
2024/01/19 09:56:15;;;;;;;0.10;0.10;;;;;;;;;;5071755;28;20576;-80
2024/01/19 09:58:42;;;;;;;0.10;0.10;;;;;;;;;;5070265;28;20064;-79
2024/01/19 10:01:08;;;;;;;0.10;0.10;;;;;;;;;;5071674;28;20076;-80
2024/01/19 10:03:36;;;;;;;0.10;0.10;;;;;;;;;;5064262;28;20053;-80
2024/01/19 10:06:03;;;;;;;0.10;0.10;;;;;;;;;;5056269;28;20061;-80
2024/01/19 10:08:30;;;;;;;0.10;0.10;;;;;;;;;;5060799;28;20057;-80
2024/01/19 10:10:56;;;;;;;0.10;0.10;;;;;;;;;;5056404;28;20093;-80
2024/01/19 10:13:23;;;;;;;0.10;0.10;;;;;;;;;;5058480;28;20133;-80
2024/01/19 10:15:49;;;;;;;0.13;0.13;;;;;;;;;;5066353;28;20445;-80
2024/01/19 10:18:16;;;;;;;0.10;0.10;;;;;;;;;;5071394;28;20072;-80
2024/01/19 10:20:43;;;;;;;0.10;0.10;;;;;;;;;;5071974;28;20060;-78
2024/01/19 10:23:23;;;;;;;0.10;0.10;;;;;;;;;;5068978;28;20140;-81
2024/01/19 10:25:50;;;;;;;;;;;;;;;;;;5068463;28;20056;-82
2024/01/19 10:28:35;;;;;;;0.10;0.10;;;;;;;;;;5059713;28;46540;-79
2024/01/19 10:31:23;;;;;;;0.10;0.10;;;;;;;;;;5063630;28;20063;-81
2024/01/19 10:33:50;;;;;;;0.10;0.10;;;;;;;;;;5070112;28;20152;-79
2024/01/19 10:36:17;;;;;;;0.10;0.10;;;;;;;;;;5065220;28;20048;-80
2024/01/19 10:38:43;;;;;;;0.10;0.10;;;;;;;;;;5071648;28;20075;-80
2024/01/19 10:41:13;;;;;;;0.10;0.10;;;;;;;;;;5068454;28;20060;-78
2024/01/19 10:43:40;;;;;;;1.53;1.43;;;;;;;;;;5072720;28;20053;-79
2024/01/19 10:46:20;;;;;;;0.10;0.10;;;;;;;;;;5073210;28;20260;-79
2024/01/19 10:48:49;;;;;;;0.10;0.10;;;;;;;;;;5071068;28;20044;-79
2024/01/19 10:51:17;;;;;;;0.10;0.10;;;;;;;;;;5069683;28;20958;-79
2024/01/19 10:53:44;;;;;;;0.10;0.10;;;;;;;;;;5069351;28;20087;-79
2024/01/19 10:56:17;;;;;;;0.10;0.10;;;;;;;;;;5072066;28;20056;-79
2024/01/19 10:58:43;;;;;;;0.10;0.10;;;;;;;;;;5065724;28;20057;-79
2024/01/19 11:01:14;;;;;;;0.10;0.10;;;;;;;;;;5069387;28;20060;-78
2024/01/19 11:03:44;;;;;;;0.10;0.10;;;;;;;;;;5059581;28;20053;-80
2024/01/19 11:06:11;;;;;;;0.10;0.10;;;;;;;;;;5069573;28;20061;-80
2024/01/19 11:08:38;;;;;;;0.10;0.10;;;;;;;;;;5061398;28;20052;-79
2024/01/19 11:11:07;;;;;;;0.10;0.10;;;;;;;;;;5058369;28;20111;-79
2024/01/19 11:13:36;;;;;;;0.20;0.20;;;;;;;;;;5064158;28;20111;-80
2024/01/19 11:16:06;;;;;;;0.10;0.10;;;;;;;;;;5059514;28;20068;-80
2024/01/19 11:18:32;;;;;;;0.10;0.10;;;;;;;;;;5058576;28;20169;-79
2024/01/19 11:20:59;;;;;;;0.10;0.10;;;;;;;;;;5056465;28;20532;-79
2024/01/19 11:23:26;;;;;;;0.10;0.10;;;;;;;;;;5059891;28;20057;-80
2024/01/19 11:25:59;;;;;;;0.10;0.10;;;;;;;;;;5067703;28;20041;-79
2024/01/19 11:28:29;;;;;;;0.10;0.10;;;;;;;;;;5070936;28;20060;-80
2024/01/19 11:31:10;;;;;;;0.55;0.50;;;;;;;;;;5068178;28;20053;-80
2024/01/19 11:33:37;;;;;;;0.10;0.10;;;;;;;;;;5056606;28;20084;-79
2024/01/19 11:36:04;;;;;;;0.25;0.25;;;;;;;;;;5064420;28;20192;-79
2024/01/19 11:38:36;;;;;;;0.10;0.10;;;;;;;;;;5065522;28;20059;-80
2024/01/19 11:41:03;;;;;;;0.10;0.10;;;;;;;;;;5051232;28;20068;-78
2024/01/19 11:43:39;;;;;;;0.10;0.10;;;;;;;;;;5057968;28;20112;-78
2024/01/19 11:46:06;;;;;;;0.10;0.10;;;;;;;;;;5048980;28;20128;-79
2024/01/19 11:48:39;;;;;;;0.10;0.10;;;;;;;;;;5052722;28;20562;-79
2024/01/19 11:51:06;;;;;;;0.10;0.10;;;;;;;;;;5062514;28;20503;-80
2024/01/19 11:53:53;;;;;;;0.10;0.10;;;;;;;;;;5057873;28;21010;-80
2024/01/19 11:56:21;;;;;;;0.20;0.20;;;;;;;;;;5055917;28;20879;-79
2024/01/19 11:58:47;;;;;;;0.10;0.10;;;;;;;;;;5050745;28;20084;-79
2024/01/19 12:01:17;;;;;;;0.10;0.10;;;;;;;;;;5054928;28;20733;-80
2024/01/19 12:03:44;;;;;;;0.10;0.10;;;;;;;;;;5059139;28;20071;-80
2024/01/19 12:06:15;;;;;;;0.25;0.22;;;;;;;;;;5064922;28;20057;-79
2024/01/19 12:08:42;;;;;;;0.10;0.10;;;;;;;;;;5054408;28;20065;-79
2024/01/19 12:11:11;;;;;;;0.10;0.10;;;;;;;;;;5048545;28;20057;-78
2024/01/19 12:13:39;;;;;;;0.17;0.17;;;;;;;;;;5073998;28;20957;-80
2024/01/19 12:16:21;;;;;;;0.10;0.10;;;;;;;;;;5050559;28;20052;-79
2024/01/19 12:18:51;;;;;;;0.10;0.10;;;;;;;;;;5060041;28;20128;-79
2024/01/19 12:21:19;;;;;;;0.10;0.10;;;;;;;;;;5056604;28;20057;-79
2024/01/19 12:23:45;;;;;;;0.10;0.10;;;;;;;;;;5054644;28;20058;-81
2024/01/19 12:26:12;;;;;;;0.10;0.10;;;;;;;;;;5068127;28;20130;-80
2024/01/19 12:28:38;;;;;;;0.10;0.10;;;;;;;;;;5064602;28;20076;-79
2024/01/19 12:31:19;;;;;;;0.10;0.10;;;;;;;;;;5068378;28;20808;-80
2024/01/19 12:33:46;;;;;;;0.10;0.10;;;;;;;;;;5065128;28;20045;-80
2024/01/19 12:36:13;;;;;;;0.10;0.10;;;;;;;;;;5062901;28;20053;-80
2024/01/19 12:38:40;;;;;;;0.32;0.32;;;;;;;;;;5060052;28;20044;-80
2024/01/19 12:41:11;;;;;;;0.10;0.10;;;;;;;;;;5068166;28;20041;-80
2024/01/19 12:43:38;;;;;;;0.10;0.10;;;;;;;;;;5067486;28;20049;-80
2024/01/19 12:46:05;;;;;;;0.10;0.10;;;;;;;;;;5064938;28;20041;-80
2024/01/19 12:48:33;;;;;;;0.10;0.10;;;;;;;;;;5068291;28;20037;-80
2024/01/19 12:51:03;;;;;;;0.10;0.10;;;;;;;;;;5070238;28;20127;-80
2024/01/19 12:53:31;;;;;;;0.10;0.10;;;;;;;;;;5060153;28;20113;-80
2024/01/19 12:55:59;;;;;;;0.10;0.10;;;;;;;;;;5060063;28;20056;-80
2024/01/19 12:58:26;;;;;;;0.10;0.10;;;;;;;;;;5065711;28;20049;-80
2024/01/19 13:01:02;;;;;;;0.10;0.10;;;;;;;;;;5065264;28;20061;-80
2024/01/19 13:03:29;;;;;;;0.10;0.10;;;;;;;;;;5066034;28;20388;-80
2024/01/19 13:05:59;;;;;;;0.10;0.10;;;;;;;;;;5070585;28;20089;-80
2024/01/19 13:08:25;;;;;;;1.20;0.95;;;;;;;;;;5062284;28;20042;-80
2024/01/19 13:11:04;;;;;;;0.20;0.20;;;;;;;;;;5060415;28;20075;-80
2024/01/19 13:13:30;;;;;;;0.10;0.10;;;;;;;;;;5072501;28;20044;-81
2024/01/19 13:16:07;;;;;;;0.10;0.10;;;;;;;;;;5067660;28;20987;-80
2024/01/19 13:18:37;;;;;;;0.10;0.10;;;;;;;;;;5066861;28;20053;-79
2024/01/19 13:21:11;;;;;;;0.10;0.10;;;;;;;;;;5075065;28;20182;-80
2024/01/19 13:23:37;;;;;;;0.10;0.10;;;;;;;;;;5073231;28;20974;-81
2024/01/19 13:26:04;;;;;;;0.10;0.10;;;;;;;;;;5069634;28;20041;-80
2024/01/19 13:28:30;;;;;;;0.10;0.10;;;;;;;;;;5067975;28;20172;-80
2024/01/19 13:30:57;;;;;;;0.38;0.38;;;;;;;;;;5068318;28;20060;-80
2024/01/19 13:33:23;;;;;;;0.10;0.10;;;;;;;;;;5065179;28;20962;-79
2024/01/19 13:35:51;;;;;;;0.10;0.10;;;;;;;;;;5070786;28;20872;-80
2024/01/19 13:38:17;;;;;;;0.10;0.10;;;;;;;;;;5126917;22;20045;-77
2024/01/19 13:40:49;;;;;;;0.10;0.10;;;;;;;;;;5027715;28;20180;-77
2024/01/19 13:43:16;;;;;;;0.10;0.10;;;;;;;;;;5044362;28;20054;-77
2024/01/19 13:45:42;;;;;;;0.10;0.10;;;;;;;;;;5047934;28;20061;-77
2024/01/19 13:48:09;;;;;;;0.10;0.10;;;;;;;;;;5044877;28;20057;-77
2024/01/19 13:50:35;;;;;;;0.10;0.10;;;;;;;;;;5046065;28;20053;-77
2024/01/19 13:53:02;;;;;;;0.10;0.10;;;;;;;;;;5044353;28;20054;-77
2024/01/19 13:55:28;;;;;;;0.10;0.10;;;;;;;;;;5047965;28;20045;-77
2024/01/19 13:57:55;;;;;;;0.10;0.10;;;;;;;;;;5047196;28;20127;-77
2024/01/19 14:00:21;;;;;;;0.10;0.10;;;;;;;;;;5044013;28;20050;-77
2024/01/19 14:02:49;;;;;;;0.10;0.10;;;;;;;;;;5055757;28;20113;-77
2024/01/19 14:05:16;;;;;;;0.10;0.10;;;;;;;;;;5043687;28;20053;-77
2024/01/19 14:07:42;;;;;;;0.10;0.10;;;;;;;;;;5051521;28;20466;-77
2024/01/19 14:10:10;;;;;;;0.10;0.10;;;;;;;;;;5042213;28;20057;-77
2024/01/19 14:12:36;;;;;;;0.10;0.10;;;;;;;;;;5038731;28;20715;-77
2024/01/19 14:15:03;;;;;;;0.10;0.10;;;;;;;;;;5043608;28;20057;-77
2024/01/19 14:17:30;;;;;;;0.10;0.10;;;;;;;;;;5047747;28;20057;-78
2024/01/19 14:19:56;;;;;;;0.20;0.20;;;;;;;;;;5049163;28;20145;-78
2024/01/19 14:22:23;;;;;;;0.10;0.10;;;;;;;;;;5051228;28;20478;-78
2024/01/19 14:24:49;;;;;;;0.10;0.10;;;;;;;;;;5050175;28;20176;-78
2024/01/19 14:27:18;;;;;;;0.10;0.10;;;;;;;;;;5043790;28;20058;-78
2024/01/19 14:29:47;;;;;;;0.10;0.10;;;;;;;;;;5051001;28;20971;-78
2024/01/19 14:32:15;;;;;;;0.10;0.10;;;;;;;;;;5030843;28;20054;-78
2024/01/19 14:34:42;;;;;;;0.10;0.10;;;;;;;;;;5036118;28;20136;-78
2024/01/19 14:37:16;;;;;;;0.10;0.10;;;;;;;;;;5044449;28;20562;-77
2024/01/19 14:39:42;;;;;;;0.20;0.20;;;;;;;;;;5044379;28;20050;-77
2024/01/19 14:42:09;;;;;;;0.10;0.10;;;;;;;;;;5039344;28;20054;-78
2024/01/19 14:44:35;;;;;;;0.10;0.10;;;;;;;;;;5038291;28;20056;-78
2024/01/19 14:47:03;;;;;;;0.10;0.10;;;;;;;;;;5045784;28;20096;-78
2024/01/19 14:49:31;;;;;;;0.10;0.10;;;;;;;;;;5036488;28;20826;-77